sensor_id;sensor_type;location;lat;lon;timestamp;P1;durP1;ratioP1;P2;durP2;ratioP2
37309;SDS011;23195;47.744;7.358;2024-03-17T06:30:59;13.83;;;7.33;;
37309;SDS011;23195;47.744;7.358;2024-03-17T06:33:25;13.90;;;6.83;;
37309;SDS011;23195;47.744;7.358;2024-03-17T06:35:56;8.63;;;6.50;;
37309;SDS011;23195;47.744;7.358;2024-03-17T06:38:22;12.27;;;6.50;;
37309;SDS011;23195;47.744;7.358;2024-03-17T06:40:51;10.17;;;6.60;;
37309;SDS011;23195;47.744;7.358;2024-03-17T06:43:18;11.83;;;6.77;;
37309;SDS011;23195;47.744;7.358;2024-03-17T06:45:53;12.40;;;6.67;;
37309;SDS011;23195;47.744;7.358;2024-03-17T06:48:29;14.43;;;7.03;;
37309;SDS011;23195;47.744;7.358;2024-03-17T06:50:58;11.50;;;6.87;;
37309;SDS011;23195;47.744;7.358;2024-03-17T06:53:33;12.50;;;6.87;;
37309;SDS011;23195;47.744;7.358;2024-03-17T06:55:59;9.13;;;6.10;;
37309;SDS011;23195;47.744;7.358;2024-03-17T06:58:25;10.17;;;6.23;;
37309;SDS011;23195;47.744;7.358;2024-03-17T07:01:00;8.47;;;5.70;;
37309;SDS011;23195;47.744;7.358;2024-03-17T07:03:29;7.77;;;5.33;;
37309;SDS011;23195;47.744;7.358;2024-03-17T07:05:57;7.07;;;5.17;;
37309;SDS011;23195;47.744;7.358;2024-03-17T07:08:27;7.83;;;5.03;;
37309;SDS011;23195;47.744;7.358;2024-03-17T07:10:59;8.33;;;5.43;;
37309;SDS011;23195;47.744;7.358;2024-03-17T07:13:31;8.83;;;4.87;;
37309;SDS011;23195;47.744;7.358;2024-03-17T07:16:01;7.93;;;4.43;;
37309;SDS011;23195;47.744;7.358;2024-03-17T07:18:31;9.83;;;4.60;;
37309;SDS011;23195;47.744;7.358;2024-03-17T07:20:58;7.07;;;4.60;;
37309;SDS011;23195;47.744;7.358;2024-03-17T07:23:25;7.70;;;4.10;;
37309;SDS011;23195;47.744;7.358;2024-03-17T07:25:55;6.57;;;3.77;;
37309;SDS011;23195;47.744;7.358;2024-03-17T07:28:27;7.47;;;4.60;;
37309;SDS011;23195;47.744;7.358;2024-03-17T07:30:56;7.73;;;4.43;;
37309;SDS011;23195;47.744;7.358;2024-03-17T07:33:25;7.50;;;4.33;;
37309;SDS011;23195;47.744;7.358;2024-03-17T07:35:56;6.77;;;4.57;;
37309;SDS011;23195;47.744;7.358;2024-03-17T07:38:25;7.63;;;4.10;;
37309;SDS011;23195;47.744;7.358;2024-03-17T07:41:04;5.57;;;4.10;;
37309;SDS011;23195;47.744;7.358;2024-03-17T07:43:32;5.30;;;4.00;;
37309;SDS011;23195;47.744;7.358;2024-03-17T07:48:31;6.30;;;4.60;;
37309;SDS011;23195;47.744;7.358;2024-03-17T07:50:58;8.47;;;4.53;;
37309;SDS011;23195;47.744;7.358;2024-03-17T07:53:34;8.53;;;4.43;;
37309;SDS011;23195;47.744;7.358;2024-03-17T07:56:08;7.97;;;4.10;;
37309;SDS011;23195;47.744;7.358;2024-03-17T07:58:44;8.27;;;4.37;;
37309;SDS011;23195;47.744;7.358;2024-03-17T08:01:13;6.90;;;4.23;;
37309;SDS011;23195;47.744;7.358;2024-03-17T08:03:40;8.87;;;4.73;;
37309;SDS011;23195;47.744;7.358;2024-03-17T08:06:24;6.70;;;4.50;;
37309;SDS011;23195;47.744;7.358;2024-03-17T08:08:49;7.33;;;4.57;;
37309;SDS011;23195;47.744;7.358;2024-03-17T08:11:20;5.27;;;4.63;;
37309;SDS011;23195;47.744;7.358;2024-03-17T08:13:52;6.70;;;4.40;;
37309;SDS011;23195;47.744;7.358;2024-03-17T08:16:19;5.90;;;4.60;;
37309;SDS011;23195;47.744;7.358;2024-03-17T08:18:45;10.77;;;4.93;;
37309;SDS011;23195;47.744;7.358;2024-03-17T08:21:11;7.90;;;4.87;;
37309;SDS011;23195;47.744;7.358;2024-03-17T08:23:37;8.30;;;5.33;;
37309;SDS011;23195;47.744;7.358;2024-03-17T08:26:11;7.60;;;5.27;;
37309;SDS011;23195;47.744;7.358;2024-03-17T08:28:37;6.30;;;4.93;;
37309;SDS011;23195;47.744;7.358;2024-03-17T08:31:05;7.73;;;5.03;;
37309;SDS011;23195;47.744;7.358;2024-03-17T08:33:30;9.73;;;5.37;;
37309;SDS011;23195;47.744;7.358;2024-03-17T08:36:05;8.23;;;5.13;;
37309;SDS011;23195;47.744;7.358;2024-03-17T08:38:35;7.87;;;4.67;;
37309;SDS011;23195;47.744;7.358;2024-03-17T08:41:10;10.43;;;5.20;;
37309;SDS011;23195;47.744;7.358;2024-03-17T08:43:38;9.13;;;5.10;;
37309;SDS011;23195;47.744;7.358;2024-03-17T08:46:15;7.67;;;5.23;;
37309;SDS011;23195;47.744;7.358;2024-03-17T08:48:43;9.70;;;5.53;;
37309;SDS011;23195;47.744;7.358;2024-03-17T08:51:09;8.37;;;5.20;;
37309;SDS011;23195;47.744;7.358;2024-03-17T08:53:35;10.10;;;5.60;;
37309;SDS011;23195;47.744;7.358;2024-03-17T08:56:05;7.67;;;4.63;;
37309;SDS011;23195;47.744;7.358;2024-03-17T08:58:33;6.37;;;4.93;;
37309;SDS011;23195;47.744;7.358;2024-03-17T09:01:09;8.90;;;5.83;;
37309;SDS011;23195;47.744;7.358;2024-03-17T09:03:40;11.10;;;5.83;;
37309;SDS011;23195;47.744;7.358;2024-03-17T09:06:15;6.73;;;5.70;;
37309;SDS011;23195;47.744;7.358;2024-03-17T09:08:42;9.37;;;5.83;;
37309;SDS011;23195;47.744;7.358;2024-03-17T09:11:11;8.60;;;5.57;;
37309;SDS011;23195;47.744;7.358;2024-03-17T09:13:41;7.90;;;5.87;;
37309;SDS011;23195;47.744;7.358;2024-03-17T09:16:09;9.70;;;5.80;;
37309;SDS011;23195;47.744;7.358;2024-03-17T09:18:38;11.00;;;6.50;;
37309;SDS011;23195;47.744;7.358;2024-03-17T09:21:10;14.33;;;10.80;;
37309;SDS011;23195;47.744;7.358;2024-03-17T09:23:42;9.83;;;7.27;;
37309;SDS011;23195;47.744;7.358;2024-03-17T09:26:11;9.63;;;6.07;;
37309;SDS011;23195;47.744;7.358;2024-03-17T09:28:39;7.83;;;5.90;;
37309;SDS011;23195;47.744;7.358;2024-03-17T09:31:05;8.47;;;6.33;;
37309;SDS011;23195;47.744;7.358;2024-03-17T09:33:32;10.33;;;6.10;;
37309;SDS011;23195;47.744;7.358;2024-03-17T09:36:02;10.30;;;6.07;;
37309;SDS011;23195;47.744;7.358;2024-03-17T09:38:31;8.63;;;5.83;;
37309;SDS011;23195;47.744;7.358;2024-03-17T09:40:58;13.40;;;5.80;;
37309;SDS011;23195;47.744;7.358;2024-03-17T09:43:26;9.67;;;5.90;;
37309;SDS011;23195;47.744;7.358;2024-03-17T09:45:55;10.47;;;6.17;;
37309;SDS011;23195;47.744;7.358;2024-03-17T09:48:27;10.40;;;5.80;;
37309;SDS011;23195;47.744;7.358;2024-03-17T09:50:54;9.43;;;5.77;;
37309;SDS011;23195;47.744;7.358;2024-03-17T09:53:33;8.73;;;5.97;;
37309;SDS011;23195;47.744;7.358;2024-03-17T09:56:03;9.53;;;6.00;;
37309;SDS011;23195;47.744;7.358;2024-03-17T09:58:36;9.83;;;5.67;;
37309;SDS011;23195;47.744;7.358;2024-03-17T10:01:02;8.03;;;5.60;;
37309;SDS011;23195;47.744;7.358;2024-03-17T10:06:20;8.43;;;5.63;;
37309;SDS011;23195;47.744;7.358;2024-03-17T10:08:57;9.10;;;5.80;;
37309;SDS011;23195;47.744;7.358;2024-03-17T10:11:35;10.73;;;5.43;;
37309;SDS011;23195;47.744;7.358;2024-03-17T10:14:21;7.60;;;5.30;;
37309;SDS011;23195;47.744;7.358;2024-03-17T10:16:47;8.57;;;5.17;;
37309;SDS011;23195;47.744;7.358;2024-03-17T10:19:48;15.00;;;6.87;;
37309;SDS011;23195;47.744;7.358;2024-03-17T10:22:27;10.93;;;6.00;;
37309;SDS011;23195;47.744;7.358;2024-03-17T10:25:00;11.30;;;5.70;;
37309;SDS011;23195;47.744;7.358;2024-03-17T10:27:28;7.50;;;5.20;;
37309;SDS011;23195;47.744;7.358;2024-03-17T10:30:20;13.23;;;7.27;;
37309;SDS011;23195;47.744;7.358;2024-03-17T10:33:42;8.10;;;5.27;;
37309;SDS011;23195;47.744;7.358;2024-03-17T10:36:28;6.87;;;4.80;;
37309;SDS011;23195;47.744;7.358;2024-03-17T10:38:57;9.30;;;5.77;;
37309;SDS011;23195;47.744;7.358;2024-03-17T10:41:56;8.53;;;5.57;;
37309;SDS011;23195;47.744;7.358;2024-03-17T10:45:22;10.50;;;5.27;;
37309;SDS011;23195;47.744;7.358;2024-03-17T10:51:13;9.33;;;5.57;;
37309;SDS011;23195;47.744;7.358;2024-03-17T10:53:53;8.67;;;5.10;;
37309;SDS011;23195;47.744;7.358;2024-03-17T10:56:41;10.53;;;5.43;;
37309;SDS011;23195;47.744;7.358;2024-03-17T11:07:55;11.30;;;5.90;;
37309;SDS011;23195;47.744;7.358;2024-03-17T11:14:21;8.47;;;5.53;;
37309;SDS011;23195;47.744;7.358;2024-03-17T11:17:16;8.67;;;4.90;;
37309;SDS011;23195;47.744;7.358;2024-03-17T11:26:45;9.00;;;5.70;;
37309;SDS011;23195;47.744;7.358;2024-03-17T11:29:41;12.60;;;6.17;;
37309;SDS011;23195;47.744;7.358;2024-03-17T11:32:30;14.40;;;6.90;;
37309;SDS011;23195;47.744;7.358;2024-03-17T11:35:17;16.13;;;8.40;;
37309;SDS011;23195;47.744;7.358;2024-03-17T11:37:50;12.13;;;5.93;;
37309;SDS011;23195;47.744;7.358;2024-03-17T11:40:30;11.20;;;5.73;;
37309;SDS011;23195;47.744;7.358;2024-03-17T11:43:25;12.00;;;6.73;;
37309;SDS011;23195;47.744;7.358;2024-03-17T11:46:05;9.80;;;5.00;;
37309;SDS011;23195;47.744;7.358;2024-03-17T11:48:42;9.13;;;5.27;;
37309;SDS011;23195;47.744;7.358;2024-03-17T11:51:27;10.50;;;6.60;;
37309;SDS011;23195;47.744;7.358;2024-03-17T11:54:02;11.53;;;6.30;;
37309;SDS011;23195;47.744;7.358;2024-03-17T11:59:34;7.67;;;5.07;;
37309;SDS011;23195;47.744;7.358;2024-03-17T12:02:21;9.20;;;4.90;;
37309;SDS011;23195;47.744;7.358;2024-03-17T12:05:10;7.03;;;4.40;;
37309;SDS011;23195;47.744;7.358;2024-03-17T12:11:17;8.97;;;4.50;;
37309;SDS011;23195;47.744;7.358;2024-03-17T12:13:46;8.77;;;4.90;;
37309;SDS011;23195;47.744;7.358;2024-03-17T12:16:21;9.30;;;5.00;;
37309;SDS011;23195;47.744;7.358;2024-03-17T12:19:15;5.97;;;4.20;;
37309;SDS011;23195;47.744;7.358;2024-03-17T12:22:08;9.90;;;3.90;;
37309;SDS011;23195;47.744;7.358;2024-03-17T12:24:53;11.33;;;4.60;;
37309;SDS011;23195;47.744;7.358;2024-03-17T12:27:31;8.90;;;4.20;;
37309;SDS011;23195;47.744;7.358;2024-03-17T12:30:04;9.20;;;3.20;;
37309;SDS011;23195;47.744;7.358;2024-03-17T12:39:37;7.83;;;3.67;;
37309;SDS011;23195;47.744;7.358;2024-03-17T12:42:24;8.80;;;4.00;;
37309;SDS011;23195;47.744;7.358;2024-03-17T12:48:29;6.63;;;3.57;;
37309;SDS011;23195;47.744;7.358;2024-03-17T12:54:38;6.70;;;3.40;;
37309;SDS011;23195;47.744;7.358;2024-03-17T12:57:41;9.33;;;3.67;;
37309;SDS011;23195;47.744;7.358;2024-03-17T13:00:31;9.37;;;3.93;;
37309;SDS011;23195;47.744;7.358;2024-03-17T13:03:08;6.60;;;3.60;;
37309;SDS011;23195;47.744;7.358;2024-03-17T13:05:41;7.40;;;4.20;;
37309;SDS011;23195;47.744;7.358;2024-03-17T13:08:24;9.63;;;5.73;;
37309;SDS011;23195;47.744;7.358;2024-03-17T13:11:03;17.43;;;15.63;;
37309;SDS011;23195;47.744;7.358;2024-03-17T13:13:38;10.33;;;6.00;;
37309;SDS011;23195;47.744;7.358;2024-03-17T13:16:30;8.60;;;3.93;;
37309;SDS011;23195;47.744;7.358;2024-03-17T13:18:58;9.57;;;3.70;;
37309;SDS011;23195;47.744;7.358;2024-03-17T13:21:40;11.03;;;3.90;;
37309;SDS011;23195;47.744;7.358;2024-03-17T13:24:08;5.77;;;3.27;;
37309;SDS011;23195;47.744;7.358;2024-03-17T13:26:39;6.40;;;3.60;;
37309;SDS011;23195;47.744;7.358;2024-03-17T13:29:13;6.73;;;3.50;;
37309;SDS011;23195;47.744;7.358;2024-03-17T13:31:43;9.33;;;3.70;;
37309;SDS011;23195;47.744;7.358;2024-03-17T13:34:40;8.67;;;3.70;;
37309;SDS011;23195;47.744;7.358;2024-03-17T13:37:07;6.47;;;3.57;;
37309;SDS011;23195;47.744;7.358;2024-03-17T13:39:43;8.17;;;3.77;;
37309;SDS011;23195;47.744;7.358;2024-03-17T13:42:27;6.47;;;3.60;;
37309;SDS011;23195;47.744;7.358;2024-03-17T13:48:22;8.83;;;3.40;;
37309;SDS011;23195;47.744;7.358;2024-03-17T13:50:59;6.67;;;3.63;;
37309;SDS011;23195;47.744;7.358;2024-03-17T13:53:37;7.17;;;3.73;;
37309;SDS011;23195;47.744;7.358;2024-03-17T13:56:18;9.77;;;4.10;;
37309;SDS011;23195;47.744;7.358;2024-03-17T13:59:02;7.27;;;3.70;;
37309;SDS011;23195;47.744;7.358;2024-03-17T14:01:39;12.33;;;3.67;;
37309;SDS011;23195;47.744;7.358;2024-03-17T14:04:14;6.97;;;3.00;;
37309;SDS011;23195;47.744;7.358;2024-03-17T14:06:46;6.93;;;4.63;;
37309;SDS011;23195;47.744;7.358;2024-03-17T14:09:18;10.90;;;5.10;;
37309;SDS011;23195;47.744;7.358;2024-03-17T14:12:02;11.37;;;5.10;;
37309;SDS011;23195;47.744;7.358;2024-03-17T14:14:31;8.03;;;3.83;;
37309;SDS011;23195;47.744;7.358;2024-03-17T14:16:57;7.73;;;3.13;;
37309;SDS011;23195;47.744;7.358;2024-03-17T14:19:31;7.40;;;3.03;;
37309;SDS011;23195;47.744;7.358;2024-03-17T14:22:12;5.87;;;3.50;;
37309;SDS011;23195;47.744;7.358;2024-03-17T14:24:43;8.53;;;3.30;;
37309;SDS011;23195;47.744;7.358;2024-03-17T14:27:12;10.20;;;3.40;;
37309;SDS011;23195;47.744;7.358;2024-03-17T14:29:43;10.50;;;4.13;;
37309;SDS011;23195;47.744;7.358;2024-03-17T14:32:25;7.00;;;3.30;;
37309;SDS011;23195;47.744;7.358;2024-03-17T14:34:56;11.23;;;4.20;;
37309;SDS011;23195;47.744;7.358;2024-03-17T14:37:34;9.47;;;4.23;;
37309;SDS011;23195;47.744;7.358;2024-03-17T14:40:49;11.57;;;3.90;;
37309;SDS011;23195;47.744;7.358;2024-03-17T14:43:20;8.90;;;3.53;;
37309;SDS011;23195;47.744;7.358;2024-03-17T14:46:04;9.97;;;4.23;;
37309;SDS011;23195;47.744;7.358;2024-03-17T14:51:26;11.00;;;4.10;;
37309;SDS011;23195;47.744;7.358;2024-03-17T14:54:04;9.87;;;3.97;;
37309;SDS011;23195;47.744;7.358;2024-03-17T14:56:38;9.27;;;6.10;;
37309;SDS011;23195;47.744;7.358;2024-03-17T14:59:07;12.47;;;5.87;;
37309;SDS011;23195;47.744;7.358;2024-03-17T15:01:34;13.47;;;6.40;;
37309;SDS011;23195;47.744;7.358;2024-03-17T15:04:46;10.67;;;6.17;;
37309;SDS011;23195;47.744;7.358;2024-03-17T15:07:26;13.37;;;6.50;;
37309;SDS011;23195;47.744;7.358;2024-03-17T15:10:36;9.83;;;6.63;;
37309;SDS011;23195;47.744;7.358;2024-03-17T15:13:14;12.30;;;5.83;;
37309;SDS011;23195;47.744;7.358;2024-03-17T15:15:42;12.87;;;6.27;;
37309;SDS011;23195;47.744;7.358;2024-03-17T15:18:09;11.37;;;6.57;;
37309;SDS011;23195;47.744;7.358;2024-03-17T15:20:52;10.13;;;6.43;;
37309;SDS011;23195;47.744;7.358;2024-03-17T15:23:20;13.67;;;6.73;;
37309;SDS011;23195;47.744;7.358;2024-03-17T15:25:54;11.53;;;7.13;;
37309;SDS011;23195;47.744;7.358;2024-03-17T15:28:31;13.00;;;7.30;;
37309;SDS011;23195;47.744;7.358;2024-03-17T15:30:57;15.30;;;6.60;;
37309;SDS011;23195;47.744;7.358;2024-03-17T15:33:32;8.13;;;6.23;;
37309;SDS011;23195;47.744;7.358;2024-03-17T15:36:12;12.53;;;6.70;;
37309;SDS011;23195;47.744;7.358;2024-03-17T15:41:45;9.80;;;5.80;;
37309;SDS011;23195;47.744;7.358;2024-03-17T15:44:26;7.77;;;5.87;;
37309;SDS011;23195;47.744;7.358;2024-03-17T15:47:12;12.43;;;5.90;;
37309;SDS011;23195;47.744;7.358;2024-03-17T15:49:51;8.33;;;5.20;;
37309;SDS011;23195;47.744;7.358;2024-03-17T15:52:24;20.53;;;11.50;;
37309;SDS011;23195;47.744;7.358;2024-03-17T15:55:02;17.03;;;8.60;;
37309;SDS011;23195;47.744;7.358;2024-03-17T15:57:36;19.37;;;8.23;;
37309;SDS011;23195;47.744;7.358;2024-03-17T16:00:10;12.37;;;5.53;;
37309;SDS011;23195;47.744;7.358;2024-03-17T16:02:52;9.63;;;6.00;;
37309;SDS011;23195;47.744;7.358;2024-03-17T16:05:29;12.87;;;6.80;;
37309;SDS011;23195;47.744;7.358;2024-03-17T16:08:00;10.20;;;6.27;;
37309;SDS011;23195;47.744;7.358;2024-03-17T16:10:37;17.90;;;11.47;;
37309;SDS011;23195;47.744;7.358;2024-03-17T16:13:14;7.70;;;4.87;;
37309;SDS011;23195;47.744;7.358;2024-03-17T16:15:51;10.23;;;5.00;;
37309;SDS011;23195;47.744;7.358;2024-03-17T16:18:31;9.53;;;5.20;;
37309;SDS011;23195;47.744;7.358;2024-03-17T16:21:08;7.27;;;4.80;;
37309;SDS011;23195;47.744;7.358;2024-03-17T16:23:39;10.57;;;6.80;;
37309;SDS011;23195;47.744;7.358;2024-03-17T16:26:27;6.83;;;5.17;;
37309;SDS011;23195;47.744;7.358;2024-03-17T16:29:04;11.10;;;7.23;;
37309;SDS011;23195;47.744;7.358;2024-03-17T16:31:31;15.43;;;7.23;;
37309;SDS011;23195;47.744;7.358;2024-03-17T16:33:59;15.50;;;9.80;;
37309;SDS011;23195;47.744;7.358;2024-03-17T16:36:31;11.37;;;7.83;;
37309;SDS011;23195;47.744;7.358;2024-03-17T16:39:11;13.77;;;6.97;;
37309;SDS011;23195;47.744;7.358;2024-03-17T16:42:08;11.07;;;5.90;;
37309;SDS011;23195;47.744;7.358;2024-03-17T16:48:11;12.97;;;7.80;;
37309;SDS011;23195;47.744;7.358;2024-03-17T16:50:41;12.47;;;7.77;;
37309;SDS011;23195;47.744;7.358;2024-03-17T16:53:07;9.13;;;6.10;;
37309;SDS011;23195;47.744;7.358;2024-03-17T16:56:03;15.60;;;10.37;;
37309;SDS011;23195;47.744;7.358;2024-03-17T16:58:32;11.37;;;7.50;;
37309;SDS011;23195;47.744;7.358;2024-03-17T17:01:00;10.63;;;6.40;;
37309;SDS011;23195;47.744;7.358;2024-03-17T17:03:36;9.83;;;6.33;;
37309;SDS011;23195;47.744;7.358;2024-03-17T17:06:03;11.87;;;7.33;;
37309;SDS011;23195;47.744;7.358;2024-03-17T17:08:29;13.80;;;8.30;;
37309;SDS011;23195;47.744;7.358;2024-03-17T17:11:03;10.23;;;6.87;;
37309;SDS011;23195;47.744;7.358;2024-03-17T17:13:45;15.37;;;8.50;;
37309;SDS011;23195;47.744;7.358;2024-03-17T17:16:31;10.77;;;7.17;;
37309;SDS011;23195;47.744;7.358;2024-03-17T17:19:00;11.63;;;7.17;;
37309;SDS011;23195;47.744;7.358;2024-03-17T17:21:34;11.80;;;7.17;;
37309;SDS011;23195;47.744;7.358;2024-03-17T17:24:05;12.37;;;7.10;;
37309;SDS011;23195;47.744;7.358;2024-03-17T17:26:34;12.27;;;7.00;;
37309;SDS011;23195;47.744;7.358;2024-03-17T17:29:02;16.93;;;7.53;;
37309;SDS011;23195;47.744;7.358;2024-03-17T17:31:41;11.77;;;7.20;;
37309;SDS011;23195;47.744;7.358;2024-03-17T17:34:12;11.67;;;7.60;;
37309;SDS011;23195;47.744;7.358;2024-03-17T17:36:42;10.90;;;7.20;;
37309;SDS011;23195;47.744;7.358;2024-03-17T17:39:24;16.50;;;7.73;;
37309;SDS011;23195;47.744;7.358;2024-03-17T17:42:05;13.33;;;8.30;;
37309;SDS011;23195;47.744;7.358;2024-03-17T17:44:34;14.23;;;8.13;;
37309;SDS011;23195;47.744;7.358;2024-03-17T17:47:02;16.23;;;9.07;;
37309;SDS011;23195;47.744;7.358;2024-03-17T17:49:31;13.87;;;9.07;;
37309;SDS011;23195;47.744;7.358;2024-03-17T17:52:00;17.37;;;11.23;;
37309;SDS011;23195;47.744;7.358;2024-03-17T17:54:28;14.47;;;10.20;;
37309;SDS011;23195;47.744;7.358;2024-03-17T17:56:57;16.10;;;10.47;;
37309;SDS011;23195;47.744;7.358;2024-03-17T17:59:23;16.70;;;10.20;;
37309;SDS011;23195;47.744;7.358;2024-03-17T18:01:51;16.53;;;10.30;;
37309;SDS011;23195;47.744;7.358;2024-03-17T18:04:19;16.13;;;10.53;;
37309;SDS011;23195;47.744;7.358;2024-03-17T18:06:45;15.87;;;10.97;;
37309;SDS011;23195;47.744;7.358;2024-03-17T18:09:21;17.47;;;11.20;;
37309;SDS011;23195;47.744;7.358;2024-03-17T18:11:53;20.20;;;12.17;;
37309;SDS011;23195;47.744;7.358;2024-03-17T18:14:19;19.90;;;12.33;;
37309;SDS011;23195;47.744;7.358;2024-03-17T18:16:50;20.30;;;12.77;;
37309;SDS011;23195;47.744;7.358;2024-03-17T18:19:16;22.57;;;13.23;;
37309;SDS011;23195;47.744;7.358;2024-03-17T18:21:44;25.57;;;16.13;;
37309;SDS011;23195;47.744;7.358;2024-03-17T18:24:10;21.37;;;16.63;;
37309;SDS011;23195;47.744;7.358;2024-03-17T18:26:36;30.17;;;21.30;;
37309;SDS011;23195;47.744;7.358;2024-03-17T18:29:05;17.87;;;13.53;;
37309;SDS011;23195;47.744;7.358;2024-03-17T18:31:33;24.07;;;18.97;;
37309;SDS011;23195;47.744;7.358;2024-03-17T18:34:02;21.93;;;13.37;;
37309;SDS011;23195;47.744;7.358;2024-03-17T18:36:32;33.83;;;18.93;;
37309;SDS011;23195;47.744;7.358;2024-03-17T18:38:59;20.13;;;11.87;;
37309;SDS011;23195;47.744;7.358;2024-03-17T18:41:25;20.93;;;12.97;;
37309;SDS011;23195;47.744;7.358;2024-03-17T18:43:51;25.03;;;15.13;;
37309;SDS011;23195;47.744;7.358;2024-03-17T18:46:19;25.80;;;18.27;;
37309;SDS011;23195;47.744;7.358;2024-03-17T18:48:51;21.43;;;13.73;;
37309;SDS011;23195;47.744;7.358;2024-03-17T18:51:17;20.97;;;12.77;;
37309;SDS011;23195;47.744;7.358;2024-03-17T18:53:48;21.77;;;12.57;;
37309;SDS011;23195;47.744;7.358;2024-03-17T18:56:17;22.57;;;14.20;;
37309;SDS011;23195;47.744;7.358;2024-03-17T18:58:45;21.23;;;14.30;;
37309;SDS011;23195;47.744;7.358;2024-03-17T19:01:14;19.07;;;13.73;;
37309;SDS011;23195;47.744;7.358;2024-03-17T19:03:40;18.87;;;12.93;;
37309;SDS011;23195;47.744;7.358;2024-03-17T19:06:15;18.07;;;12.30;;
37309;SDS011;23195;47.744;7.358;2024-03-17T19:08:43;24.77;;;15.83;;
37309;SDS011;23195;47.744;7.358;2024-03-17T19:11:10;26.03;;;18.30;;
37309;SDS011;23195;47.744;7.358;2024-03-17T19:13:39;22.37;;;15.43;;
37309;SDS011;23195;47.744;7.358;2024-03-17T19:16:07;24.33;;;16.33;;
37309;SDS011;23195;47.744;7.358;2024-03-17T19:18:38;27.50;;;16.83;;
37309;SDS011;23195;47.744;7.358;2024-03-17T19:21:05;36.57;;;21.43;;
37309;SDS011;23195;47.744;7.358;2024-03-17T19:23:35;27.03;;;15.90;;
37309;SDS011;23195;47.744;7.358;2024-03-17T19:26:08;25.43;;;14.67;;
37309;SDS011;23195;47.744;7.358;2024-03-17T19:28:41;25.90;;;16.07;;
37309;SDS011;23195;47.744;7.358;2024-03-17T19:31:07;27.00;;;17.97;;
37309;SDS011;23195;47.744;7.358;2024-03-17T19:33:33;28.30;;;18.80;;
37309;SDS011;23195;47.744;7.358;2024-03-17T19:36:00;28.90;;;19.53;;
37309;SDS011;23195;47.744;7.358;2024-03-17T19:38:37;31.70;;;19.00;;
37309;SDS011;23195;47.744;7.358;2024-03-17T19:41:18;37.27;;;21.70;;
37309;SDS011;23195;47.744;7.358;2024-03-17T19:43:47;35.23;;;20.77;;
37309;SDS011;23195;47.744;7.358;2024-03-17T19:46:16;45.13;;;25.07;;
37309;SDS011;23195;47.744;7.358;2024-03-17T19:48:52;43.10;;;22.97;;
37309;SDS011;23195;47.744;7.358;2024-03-17T19:51:21;31.87;;;19.87;;
37309;SDS011;23195;47.744;7.358;2024-03-17T19:53:49;29.37;;;18.10;;
37309;SDS011;23195;47.744;7.358;2024-03-17T19:56:15;26.43;;;17.57;;
37309;SDS011;23195;47.744;7.358;2024-03-17T19:58:42;63.10;;;31.43;;
37309;SDS011;23195;47.744;7.358;2024-03-17T20:01:08;46.57;;;24.50;;
37309;SDS011;23195;47.744;7.358;2024-03-17T20:03:48;34.93;;;20.57;;
37309;SDS011;23195;47.744;7.358;2024-03-17T20:06:44;35.97;;;20.23;;
37309;SDS011;23195;47.744;7.358;2024-03-17T20:09:19;29.77;;;19.37;;
37309;SDS011;23195;47.744;7.358;2024-03-17T20:11:50;32.10;;;19.63;;
37309;SDS011;23195;47.744;7.358;2024-03-17T20:14:16;33.90;;;20.17;;
37309;SDS011;23195;47.744;7.358;2024-03-17T20:16:42;31.90;;;19.50;;
37309;SDS011;23195;47.744;7.358;2024-03-17T20:19:08;33.03;;;19.60;;
37309;SDS011;23195;47.744;7.358;2024-03-17T20:21:36;32.23;;;20.13;;
37309;SDS011;23195;47.744;7.358;2024-03-17T20:24:02;35.53;;;19.97;;
37309;SDS011;23195;47.744;7.358;2024-03-17T20:26:31;28.90;;;19.67;;
37309;SDS011;23195;47.744;7.358;2024-03-17T20:29:00;27.23;;;18.40;;
37309;SDS011;23195;47.744;7.358;2024-03-17T20:31:27;38.80;;;23.20;;
37309;SDS011;23195;47.744;7.358;2024-03-17T20:33:56;35.50;;;22.60;;
37309;SDS011;23195;47.744;7.358;2024-03-17T20:36:27;34.13;;;22.17;;
37309;SDS011;23195;47.744;7.358;2024-03-17T20:38:53;37.80;;;23.50;;
37309;SDS011;23195;47.744;7.358;2024-03-17T20:41:19;34.43;;;21.30;;
37309;SDS011;23195;47.744;7.358;2024-03-17T20:43:45;31.80;;;20.53;;
37309;SDS011;23195;47.744;7.358;2024-03-17T20:46:11;30.00;;;19.80;;
37309;SDS011;23195;47.744;7.358;2024-03-17T20:48:40;32.07;;;20.57;;
37309;SDS011;23195;47.744;7.358;2024-03-17T20:51:09;30.47;;;19.43;;
37309;SDS011;23195;47.744;7.358;2024-03-17T20:53:35;29.57;;;20.03;;
37309;SDS011;23195;47.744;7.358;2024-03-17T20:56:05;31.87;;;20.00;;
37309;SDS011;23195;47.744;7.358;2024-03-17T20:58:33;29.47;;;19.97;;
37309;SDS011;23195;47.744;7.358;2024-03-17T21:01:02;32.67;;;21.47;;
37309;SDS011;23195;47.744;7.358;2024-03-17T21:03:29;29.93;;;21.13;;
37309;SDS011;23195;47.744;7.358;2024-03-17T21:05:54;31.90;;;21.40;;
37309;SDS011;23195;47.744;7.358;2024-03-17T21:08:23;33.73;;;20.80;;
37309;SDS011;23195;47.744;7.358;2024-03-17T21:10:55;29.63;;;20.87;;
37309;SDS011;23195;47.744;7.358;2024-03-17T21:13:23;39.47;;;26.83;;
37309;SDS011;23195;47.744;7.358;2024-03-17T21:15:52;33.50;;;22.50;;
37309;SDS011;23195;47.744;7.358;2024-03-17T21:18:18;33.03;;;19.60;;
37309;SDS011;23195;47.744;7.358;2024-03-17T21:20:49;33.10;;;21.17;;
37309;SDS011;23195;47.744;7.358;2024-03-17T21:23:27;29.27;;;18.93;;
37309;SDS011;23195;47.744;7.358;2024-03-17T21:25:53;35.40;;;20.80;;
37309;SDS011;23195;47.744;7.358;2024-03-17T21:28:18;30.10;;;18.00;;
37309;SDS011;23195;47.744;7.358;2024-03-17T21:30:44;27.47;;;16.43;;
37309;SDS011;23195;47.744;7.358;2024-03-17T21:33:13;26.17;;;17.53;;
37309;SDS011;23195;47.744;7.358;2024-03-17T21:35:57;25.47;;;16.67;;
37309;SDS011;23195;47.744;7.358;2024-03-17T21:38:23;28.80;;;18.50;;
37309;SDS011;23195;47.744;7.358;2024-03-17T21:41:26;25.97;;;17.00;;
37309;SDS011;23195;47.744;7.358;2024-03-17T21:44:06;24.17;;;16.27;;
37309;SDS011;23195;47.744;7.358;2024-03-17T21:49:33;23.87;;;14.87;;
37309;SDS011;23195;47.744;7.358;2024-03-17T21:51:58;26.60;;;16.20;;
37309;SDS011;23195;47.744;7.358;2024-03-17T21:54:35;27.27;;;16.23;;
37309;SDS011;23195;47.744;7.358;2024-03-17T21:57:04;23.70;;;16.00;;
37309;SDS011;23195;47.744;7.358;2024-03-17T21:59:43;28.83;;;15.57;;
37309;SDS011;23195;47.744;7.358;2024-03-17T22:02:48;27.20;;;17.00;;
37309;SDS011;23195;47.744;7.358;2024-03-17T22:05:32;25.67;;;17.13;;
37309;SDS011;23195;47.744;7.358;2024-03-17T22:07:58;30.60;;;18.67;;
37309;SDS011;23195;47.744;7.358;2024-03-17T22:10:24;28.23;;;18.17;;
37309;SDS011;23195;47.744;7.358;2024-03-17T22:16:18;26.23;;;16.53;;
37309;SDS011;23195;47.744;7.358;2024-03-17T22:18:44;29.37;;;17.43;;
37309;SDS011;23195;47.744;7.358;2024-03-17T22:21:09;25.00;;;16.60;;
37309;SDS011;23195;47.744;7.358;2024-03-17T22:23:38;25.53;;;16.60;;
37309;SDS011;23195;47.744;7.358;2024-03-17T22:26:04;23.63;;;15.80;;
37309;SDS011;23195;47.744;7.358;2024-03-17T22:28:30;25.53;;;16.80;;
37309;SDS011;23195;47.744;7.358;2024-03-17T22:30:57;24.83;;;16.80;;
37309;SDS011;23195;47.744;7.358;2024-03-17T22:33:25;28.27;;;17.17;;
37309;SDS011;23195;47.744;7.358;2024-03-17T22:35:59;22.93;;;13.63;;
37309;SDS011;23195;47.744;7.358;2024-03-17T22:38:35;21.57;;;13.10;;
37309;SDS011;23195;47.744;7.358;2024-03-17T22:41:03;22.57;;;12.80;;
37309;SDS011;23195;47.744;7.358;2024-03-17T22:43:31;23.93;;;13.87;;
37309;SDS011;23195;47.744;7.358;2024-03-17T22:46:00;20.93;;;13.47;;
37309;SDS011;23195;47.744;7.358;2024-03-17T22:48:30;17.77;;;11.60;;
37309;SDS011;23195;47.744;7.358;2024-03-17T22:50:58;20.37;;;12.43;;